createdAt,value
2023-01-11T00:00:25.219Z,34.30
2023-01-11T00:02:56.733Z,34.22
2023-01-11T00:05:23.429Z,34.34
2023-01-11T00:07:49.884Z,34.54
2023-01-11T00:10:16.593Z,34.37
2023-01-11T00:12:43.349Z,34.42
2023-01-11T00:15:10.587Z,34.30
2023-01-11T00:17:37.063Z,34.67
2023-01-11T00:20:03.731Z,34.32
2023-01-11T00:22:30.199Z,34.56
2023-01-11T00:24:56.632Z,34.33
2023-01-11T00:27:23.100Z,34.49
2023-01-11T00:29:49.552Z,34.50
2023-01-11T00:32:16.012Z,34.70
2023-01-11T00:34:42.494Z,34.68
2023-01-11T00:37:10.606Z,34.87
2023-01-11T00:39:37.073Z,34.47
2023-01-11T00:42:22.012Z,34.68
2023-01-11T00:45:06.949Z,34.73
2023-01-11T00:47:51.988Z,35.00
2023-01-11T00:50:18.504Z,34.75
2023-01-11T00:52:44.968Z,34.73
2023-01-11T00:55:11.426Z,34.74
2023-01-11T00:57:38.203Z,34.89
2023-01-11T01:00:05.263Z,34.98
2023-01-11T01:02:32.936Z,35.00
2023-01-11T01:04:59.886Z,35.06
2023-01-11T01:07:26.393Z,35.25
2023-01-11T01:09:52.857Z,35.28
2023-01-11T01:12:39.327Z,34.96
2023-01-11T01:15:06.080Z,35.30
2023-01-11T01:17:32.540Z,35.04
2023-01-11T01:19:58.984Z,35.37
2023-01-11T01:22:25.441Z,35.42
2023-01-11T01:24:51.899Z,35.53
2023-01-11T01:27:19.972Z,35.32
2023-01-11T01:29:46.472Z,35.29
2023-01-11T01:32:12.934Z,35.38
2023-01-11T01:34:39.398Z,35.46
2023-01-11T01:37:06.448Z,35.26
2023-01-11T01:39:32.932Z,35.37
2023-01-11T01:41:59.415Z,35.48
2023-01-11T01:44:50.513Z,35.77
2023-01-11T01:47:16.989Z,35.63
2023-01-11T01:49:43.484Z,35.71
2023-01-11T01:52:09.986Z,35.74
2023-01-11T01:54:37.431Z,35.57
2023-01-11T01:57:07.207Z,35.86
2023-01-11T01:59:33.683Z,35.65
2023-01-11T02:02:00.235Z,35.93
2023-01-11T02:04:40.365Z,35.94
2023-01-11T02:07:12.072Z,35.65
2023-01-11T02:10:03.886Z,36.01
2023-01-11T02:12:32.110Z,35.87
2023-01-11T02:15:00.386Z,35.93
2023-01-11T02:17:26.841Z,35.91
2023-01-11T02:20:21.561Z,35.60
2023-01-11T02:22:53.846Z,36.05
2023-01-11T02:25:44.106Z,35.82
2023-01-11T02:28:26.635Z,35.82
2023-01-11T02:31:05.185Z,35.93
2023-01-11T02:33:40.661Z,36.03
2023-01-11T02:36:09.389Z,35.85
2023-01-11T02:38:46.349Z,35.86
2023-01-11T02:41:25.351Z,36.05
2023-01-11T02:44:15.896Z,35.80
2023-01-11T02:46:45.309Z,36.06
2023-01-11T02:49:16.835Z,35.68
2023-01-11T02:51:47.450Z,35.98
2023-01-11T02:54:13.949Z,36.11
2023-01-11T02:56:41.935Z,35.95
2023-01-11T02:59:10.426Z,35.90
2023-01-11T03:01:46.999Z,35.99
2023-01-11T03:04:23.347Z,36.16
2023-01-11T03:06:49.835Z,36.10
2023-01-11T03:09:20.216Z,36.01
2023-01-11T03:12:17.427Z,35.94
2023-01-11T03:15:14.786Z,35.90
2023-01-11T03:17:54.575Z,36.01
2023-01-11T03:20:24.167Z,35.91
2023-01-11T03:23:15.616Z,36.12
2023-01-11T03:26:07.589Z,36.09
2023-01-11T03:28:40.188Z,36.03
2023-01-11T03:31:18.210Z,36.20
2023-01-11T03:34:19.096Z,36.10
2023-01-11T03:36:49.837Z,35.91
2023-01-11T03:39:22.246Z,35.87
2023-01-11T03:41:48.749Z,36.02
2023-01-11T03:44:15.247Z,36.27
2023-01-11T03:46:45.220Z,36.13
2023-01-11T03:49:15.654Z,36.17
2023-01-11T03:51:43.514Z,35.88
2023-01-11T03:54:13.575Z,36.10
2023-01-11T03:56:48.788Z,36.05
2023-01-11T03:59:15.265Z,35.96
2023-01-11T04:01:41.714Z,35.88
2023-01-11T04:04:08.201Z,35.88
2023-01-11T04:06:35.752Z,35.97
2023-01-11T04:09:02.235Z,36.26
2023-01-11T04:11:28.692Z,36.19
2023-01-11T04:13:55.208Z,36.22
2023-01-11T04:16:21.752Z,36.27
2023-01-11T04:18:48.229Z,36.10
2023-01-11T04:21:14.686Z,36.16
2023-01-11T04:23:41.197Z,36.11
2023-01-11T04:26:07.663Z,36.15
2023-01-11T04:28:34.384Z,36.16
2023-01-11T04:31:00.830Z,36.39
2023-01-11T04:33:27.301Z,36.08
2023-01-11T04:35:53.800Z,36.25
2023-01-11T04:38:20.354Z,36.36
2023-01-11T04:40:47.806Z,36.36
2023-01-11T04:43:14.263Z,36.04
2023-01-11T04:45:40.828Z,36.25
2023-01-11T04:48:07.340Z,35.98
2023-01-11T04:50:33.885Z,36.12
2023-01-11T04:53:00.401Z,36.24
2023-01-11T04:55:26.851Z,36.20
2023-01-11T04:57:53.288Z,36.25
2023-01-11T05:00:19.958Z,36.10
2023-01-11T05:02:46.427Z,36.34
2023-01-11T05:05:12.972Z,36.33
2023-01-11T05:07:39.587Z,36.28
2023-01-11T05:10:06.547Z,36.53
2023-01-11T05:12:32.991Z,36.42
2023-01-11T05:14:59.467Z,36.32
2023-01-11T05:17:25.931Z,36.42
2023-01-11T05:19:52.416Z,36.30
2023-01-11T05:22:18.858Z,36.26
2023-01-11T05:24:45.310Z,36.39
2023-01-11T05:27:12.155Z,36.33
2023-01-11T05:29:38.637Z,36.51
2023-01-11T05:32:05.342Z,36.32
2023-01-11T05:34:31.828Z,36.34
2023-01-11T05:36:58.278Z,36.31
2023-01-11T05:39:24.784Z,36.14
2023-01-11T05:41:51.223Z,36.21
2023-01-11T05:44:36.729Z,36.32
2023-01-11T05:47:04.179Z,36.41
2023-01-11T05:49:30.667Z,36.46
2023-01-11T05:51:57.149Z,36.28
2023-01-11T05:54:23.626Z,36.41
2023-01-11T05:56:50.075Z,36.49
2023-01-11T05:59:16.557Z,36.31
2023-01-11T06:01:43.073Z,36.30
2023-01-11T06:04:09.632Z,36.29
2023-01-11T06:06:36.182Z,36.37
2023-01-11T06:09:02.702Z,36.27
2023-01-11T06:11:29.177Z,36.06
2023-01-11T06:13:55.686Z,36.27
2023-01-11T06:16:22.401Z,36.35
2023-01-11T06:18:50.308Z,36.25
2023-01-11T06:21:16.830Z,36.28
2023-01-11T06:23:45.177Z,36.47
2023-01-11T06:26:13.154Z,36.44
2023-01-11T06:28:39.727Z,36.27
2023-01-11T06:31:06.313Z,36.26
2023-01-11T06:33:32.922Z,36.42
2023-01-11T06:35:59.425Z,36.58
2023-01-11T06:38:25.954Z,36.47
2023-01-11T06:40:56.798Z,36.49
2023-01-11T06:43:23.680Z,36.37
2023-01-11T06:45:50.214Z,36.44
2023-01-11T06:48:17.436Z,36.57
2023-01-11T06:50:47.032Z,36.54
2023-01-11T06:53:13.494Z,36.75
2023-01-11T06:55:39.948Z,36.65
2023-01-11T06:58:06.400Z,36.45
2023-01-11T07:00:33.243Z,36.48
2023-01-11T07:03:04.255Z,36.42
2023-01-11T07:05:32.615Z,36.70
2023-01-11T07:07:59.162Z,36.40
2023-01-11T07:10:25.608Z,36.58
2023-01-11T07:12:53.389Z,36.49
2023-01-11T07:15:19.909Z,36.61
2023-01-11T07:17:47.735Z,36.51
2023-01-11T07:20:14.241Z,36.63
2023-01-11T07:22:40.707Z,36.66
2023-01-11T07:25:07.391Z,36.45
2023-01-11T07:27:33.852Z,36.61
2023-01-11T07:30:00.312Z,36.65
2023-01-11T07:32:28.444Z,36.51
2023-01-11T07:34:55.476Z,36.41
2023-01-11T07:37:28.145Z,36.67
2023-01-11T07:39:55.659Z,36.62
2023-01-11T07:42:40.408Z,36.46
2023-01-11T07:45:07.436Z,36.47
2023-01-11T07:47:33.897Z,36.65
2023-01-11T07:50:00.676Z,36.49
2023-01-11T07:52:27.140Z,36.73
2023-01-11T07:54:53.629Z,36.73
2023-01-11T07:57:20.131Z,36.65
2023-01-11T07:59:46.614Z,36.36
2023-01-11T08:02:13.070Z,36.33
2023-01-11T08:04:39.579Z,36.49
2023-01-11T08:07:06.038Z,36.39
2023-01-11T08:09:32.502Z,36.29
2023-01-11T08:12:17.275Z,36.31
2023-01-11T08:14:44.039Z,36.27
2023-01-11T08:17:14.837Z,36.32
2023-01-11T08:19:41.360Z,36.33
2023-01-11T08:22:07.870Z,36.28
2023-01-11T08:24:37.127Z,36.34
2023-01-11T08:27:03.747Z,36.59
2023-01-11T08:29:30.313Z,36.32
2023-01-11T08:31:57.116Z,36.52
2023-01-11T08:34:23.622Z,36.38
2023-01-11T08:36:50.076Z,36.20
2023-01-11T08:39:16.730Z,36.56
2023-01-11T08:41:43.452Z,36.47
2023-01-11T08:44:11.810Z,35.88
2023-01-11T08:46:38.708Z,35.86
2023-01-11T08:49:11.072Z,36.12
2023-01-11T08:51:39.073Z,36.36
2023-01-11T08:54:09.429Z,36.31
2023-01-11T08:56:36.942Z,36.61
2023-01-11T08:59:04.296Z,36.50
2023-01-11T09:01:43.914Z,36.80
2023-01-11T09:04:25.974Z,36.84
2023-01-11T09:06:53.060Z,36.62
2023-01-11T09:09:19.528Z,36.55
2023-01-11T09:11:54.868Z,36.42
2023-01-11T09:14:21.605Z,36.30
2023-01-11T09:16:48.799Z,36.36
2023-01-11T09:19:15.339Z,36.13
2023-01-11T09:21:41.877Z,36.23
2023-01-11T09:24:08.486Z,36.49
2023-01-11T09:26:35.753Z,36.39
2023-01-11T09:29:02.315Z,36.10
2023-01-11T09:31:28.908Z,36.76
2023-01-11T09:33:55.448Z,36.68
2023-01-11T09:36:23.476Z,36.77
2023-01-11T09:38:52.643Z,36.85
2023-01-11T09:41:28.999Z,36.96
2023-01-11T09:44:14.440Z,36.92
2023-01-11T09:46:42.895Z,36.88
2023-01-11T09:49:20.218Z,36.88
2023-01-11T09:51:46.741Z,37.09
2023-01-11T09:54:23.264Z,37.30
2023-01-11T09:56:54.777Z,37.00
2023-01-11T09:59:34.846Z,36.95
2023-01-11T10:02:12.197Z,36.85
2023-01-11T10:05:18.526Z,36.72
2023-01-11T10:07:53.725Z,36.66
2023-01-11T10:18:38.447Z,37.16
2023-01-11T10:19:47.821Z,37.18
2023-01-11T10:22:27.833Z,37.17
2023-01-11T10:24:56.315Z,37.45
2023-01-11T10:27:40.339Z,37.52
2023-01-11T10:30:41.965Z,37.56
2023-01-11T10:33:45.302Z,37.64
2023-01-11T10:36:39.535Z,37.70
2023-01-11T10:40:01.336Z,37.76
2023-01-11T10:42:29.829Z,37.62
2023-01-11T10:44:59.993Z,37.77
2023-01-11T10:47:30.429Z,37.79
2023-01-11T10:50:06.295Z,37.98
2023-01-11T10:52:47.868Z,37.90
2023-01-11T10:55:15.859Z,37.76
2023-01-11T10:58:04.952Z,37.95
2023-01-11T11:00:44.951Z,37.67
2023-01-11T11:03:26.582Z,37.99
2023-01-11T11:06:20.257Z,37.99
2023-01-11T11:09:08.244Z,37.77
2023-01-11T11:11:46.996Z,38.05
2023-01-11T11:14:16.884Z,38.09
2023-01-11T11:17:09.241Z,37.78
2023-01-11T11:19:35.679Z,37.85
2023-01-11T11:22:02.201Z,37.72
2023-01-11T11:24:48.298Z,37.87
2023-01-11T11:27:38.454Z,38.05
2023-01-11T11:30:05.410Z,37.93
2023-01-11T11:32:36.735Z,38.25
2023-01-11T11:35:04.020Z,38.10
2023-01-11T11:37:35.100Z,38.20
2023-01-11T11:40:01.577Z,38.11
2023-01-11T11:42:28.159Z,38.15
2023-01-11T11:45:09.941Z,38.27
2023-01-11T11:47:37.097Z,38.23
2023-01-11T11:50:27.367Z,38.23
2023-01-11T11:53:04.185Z,38.31
2023-01-11T11:55:32.365Z,38.21
2023-01-11T11:58:00.108Z,38.21
2023-01-11T12:00:30.907Z,38.27
2023-01-11T12:03:12.525Z,38.37
2023-01-11T12:05:39.039Z,38.40
2023-01-11T12:08:05.817Z,38.44
2023-01-11T12:10:32.322Z,38.47
2023-01-11T12:13:02.509Z,38.72
2023-01-11T12:15:32.958Z,38.64
2023-01-11T12:18:26.126Z,38.65
2023-01-11T12:20:52.616Z,38.65
2023-01-11T12:23:25.664Z,38.59
2023-01-11T12:26:16.097Z,38.93
2023-01-11T12:28:51.275Z,38.91
2023-01-11T12:31:51.637Z,38.51
2023-01-11T12:34:35.620Z,38.84
2023-01-11T12:37:27.001Z,38.93
2023-01-11T12:40:20.774Z,39.58
2023-01-11T12:43:12.020Z,39.39
2023-01-11T12:46:02.272Z,39.59
2023-01-11T12:48:38.157Z,39.59
2023-01-11T12:51:38.529Z,39.29
2023-01-11T12:54:42.693Z,39.46
2023-01-11T12:57:20.879Z,39.79
2023-01-11T13:00:06.193Z,39.79
2023-01-11T13:02:56.127Z,40.07
2023-01-11T13:05:48.238Z,40.07
2023-01-11T13:08:49.577Z,40.13
2023-01-11T13:11:43.359Z,40.17
2023-01-11T13:14:31.732Z,40.17
2023-01-11T13:17:25.951Z,40.24
2023-01-11T13:20:11.041Z,40.41
2023-01-11T13:22:40.252Z,40.19
2023-01-11T13:25:19.122Z,40.00
2023-01-11T13:27:45.588Z,39.80
2023-01-11T13:30:12.999Z,39.96
2023-01-11T13:32:40.122Z,39.70
2023-01-11T13:35:13.909Z,39.80
2023-01-11T13:37:43.021Z,39.99
2023-01-11T13:40:25.383Z,39.69
2023-01-11T13:43:07.075Z,39.78
2023-01-11T13:45:43.903Z,39.90
2023-01-11T13:48:18.324Z,40.13
2023-01-11T13:50:47.903Z,40.15
2023-01-11T13:53:36.898Z,39.95
2023-01-11T13:56:20.471Z,40.38
2023-01-11T13:58:58.073Z,40.24
2023-01-11T14:01:50.379Z,40.20
2023-01-11T14:04:27.625Z,40.42
2023-01-11T14:07:20.968Z,40.73
2023-01-11T14:10:04.769Z,40.42
2023-01-11T14:12:42.903Z,40.29
2023-01-11T14:15:26.358Z,40.50
2023-01-11T14:18:20.890Z,40.29
2023-01-11T14:20:50.763Z,40.31
2023-01-11T14:23:19.154Z,40.37
2023-01-11T14:25:54.344Z,40.44
2023-01-11T14:28:45.590Z,40.22
2023-01-11T14:31:39.957Z,40.18
2023-01-11T14:34:28.884Z,40.28
2023-01-11T14:36:55.240Z,40.30
2023-01-11T14:39:47.066Z,40.26
2023-01-11T14:42:51.319Z,40.18
2023-01-11T14:45:24.188Z,40.30
2023-01-11T14:48:15.645Z,40.17
2023-01-11T14:51:15.018Z,40.03
2023-01-11T14:53:45.857Z,40.29
2023-01-11T14:56:43.385Z,40.19
2023-01-11T14:59:24.494Z,39.68
2023-01-11T15:02:03.066Z,39.10
2023-01-11T15:04:33.619Z,39.53
2023-01-11T15:07:00.334Z,39.99
2023-01-11T15:09:49.234Z,37.14
2023-01-11T15:12:20.401Z,38.33
2023-01-11T15:14:54.208Z,39.77
2023-01-11T15:17:40.941Z,39.46
2023-01-11T15:20:11.408Z,39.11
2023-01-11T15:22:38.114Z,39.22
2023-01-11T15:25:26.596Z,39.17
2023-01-11T15:27:53.207Z,39.04
2023-01-11T15:30:28.924Z,38.90
2023-01-11T15:33:46.611Z,38.65
2023-01-11T15:36:13.177Z,38.68
2023-01-11T15:38:54.317Z,38.89
2023-01-11T15:42:03.153Z,38.58
2023-01-11T15:45:07.481Z,39.10
2023-01-11T15:47:52.549Z,39.51
2023-01-11T15:50:32.093Z,39.68
2023-01-11T15:53:29.141Z,39.74
2023-01-11T15:56:03.068Z,39.67
2023-01-11T15:58:52.447Z,39.29
2023-01-11T16:01:22.749Z,39.11
2023-01-11T16:04:10.003Z,39.18
2023-01-11T16:06:36.319Z,38.82
2023-01-11T16:09:30.246Z,38.83
2023-01-11T16:12:07.317Z,38.80
2023-01-11T16:14:56.455Z,38.78
2023-01-11T16:17:23.162Z,38.99
2023-01-11T16:19:55.299Z,39.03
2023-01-11T16:22:26.268Z,38.80
2023-01-11T16:24:55.746Z,39.26
2023-01-11T16:27:29.833Z,39.09
2023-01-11T16:29:56.169Z,39.24
2023-01-11T16:32:26.997Z,39.20
2023-01-11T16:34:53.703Z,39.19
2023-01-11T16:37:28.398Z,39.05
2023-01-11T16:40:17.641Z,39.17
2023-01-11T16:42:55.362Z,39.29
2023-01-11T16:45:41.299Z,39.07
2023-01-11T16:48:10.650Z,38.94
2023-01-11T16:50:37.148Z,39.33
2023-01-11T16:53:24.997Z,39.74
2023-01-11T16:56:05.349Z,39.89
2023-01-11T16:58:38.437Z,39.69
2023-01-11T17:01:09.826Z,39.71
2023-01-11T17:03:38.591Z,39.80
2023-01-11T17:06:08.110Z,39.29
2023-01-11T17:09:01.335Z,39.15
2023-01-11T17:11:27.700Z,38.91
2023-01-11T17:14:13.079Z,38.74
2023-01-11T17:16:41.426Z,39.02
2023-01-11T17:19:12.667Z,38.88
2023-01-11T17:21:39.141Z,38.61
2023-01-11T17:24:05.851Z,38.47
2023-01-11T17:26:37.314Z,38.64
2023-01-11T17:29:03.835Z,38.90
2023-01-11T17:31:32.219Z,38.68
2023-01-11T17:34:08.537Z,38.44
2023-01-11T17:36:35.045Z,38.63
2023-01-11T17:39:01.607Z,38.31
2023-01-11T17:41:46.874Z,38.46
2023-01-11T17:44:36.689Z,37.97
2023-01-11T17:47:04.780Z,38.02
2023-01-11T17:49:31.257Z,38.00
2023-01-11T17:51:59.836Z,37.99
2023-01-11T17:54:26.766Z,38.32
2023-01-11T17:56:58.410Z,38.32
2023-01-11T17:59:26.264Z,38.40
2023-01-11T18:02:02.752Z,38.60
2023-01-11T18:04:29.522Z,38.78
2023-01-11T18:07:04.700Z,38.67
2023-01-11T18:09:32.282Z,38.97
2023-01-11T18:12:12.057Z,38.89
2023-01-11T18:14:40.631Z,38.50
2023-01-11T18:17:35.095Z,38.73
2023-01-11T18:20:03.627Z,38.86
2023-01-11T18:22:30.762Z,38.58
2023-01-11T18:24:58.353Z,38.91
2023-01-11T18:27:32.293Z,38.77
2023-01-11T18:30:02.550Z,38.63
2023-01-11T18:32:32.621Z,38.43
2023-01-11T18:34:59.090Z,38.51
2023-01-11T18:37:25.801Z,38.71
2023-01-11T18:39:52.801Z,38.95
2023-01-11T18:42:21.324Z,38.90
2023-01-11T18:44:49.370Z,38.48
2023-01-11T18:47:21.381Z,38.46
2023-01-11T18:49:48.598Z,38.62
2023-01-11T18:52:15.054Z,38.18
2023-01-11T18:54:41.694Z,38.44
2023-01-11T18:57:08.227Z,38.26
2023-01-11T18:59:34.713Z,38.53
2023-01-11T19:02:27.345Z,38.41
2023-01-11T19:04:54.690Z,38.20
2023-01-11T19:07:21.409Z,38.10
2023-01-11T19:09:47.948Z,38.39
2023-01-11T19:12:14.621Z,38.35
2023-01-11T19:14:41.142Z,38.25
2023-01-11T19:17:08.778Z,38.22
2023-01-11T19:19:35.392Z,38.21
2023-01-11T19:22:02.220Z,38.35
2023-01-11T19:24:28.727Z,38.29
2023-01-11T19:26:55.691Z,38.36
2023-01-11T19:29:24.577Z,38.71
2023-01-11T19:31:52.158Z,38.79
2023-01-11T19:34:18.991Z,38.22
2023-01-11T19:36:45.511Z,38.32
2023-01-11T19:39:12.158Z,38.27
2023-01-11T19:41:54.946Z,38.60
2023-01-11T19:44:22.265Z,38.14
2023-01-11T19:46:56.718Z,38.44
2023-01-11T19:49:27.064Z,38.94
2023-01-11T19:51:53.529Z,39.09
2023-01-11T19:54:21.523Z,38.97
2023-01-11T19:56:49.142Z,39.04
2023-01-11T19:59:15.779Z,39.25
2023-01-11T20:01:42.349Z,38.77
2023-01-11T20:04:08.916Z,38.85
2023-01-11T20:06:35.383Z,38.96
2023-01-11T20:09:01.845Z,38.09
2023-01-11T20:11:28.296Z,38.17
2023-01-11T20:13:54.772Z,38.24
2023-01-11T20:16:22.790Z,37.97
2023-01-11T20:18:56.089Z,38.07
2023-01-11T20:21:23.321Z,38.36
2023-01-11T20:23:49.782Z,38.41
2023-01-11T20:26:16.323Z,38.39
2023-01-11T20:28:53.343Z,38.46
2023-01-11T20:31:21.324Z,38.10
2023-01-11T20:33:47.851Z,38.38
2023-01-11T20:36:16.015Z,38.01
2023-01-11T20:38:42.820Z,38.30
2023-01-11T20:41:10.465Z,38.19
2023-01-11T20:43:40.240Z,38.44
2023-01-11T20:46:07.211Z,38.40
2023-01-11T20:48:35.645Z,38.31
2023-01-11T20:51:03.067Z,38.36
2023-01-11T20:53:29.585Z,38.88
2023-01-11T20:55:56.489Z,38.81
2023-01-11T20:58:23.128Z,38.55
2023-01-11T21:00:49.788Z,38.59
2023-01-11T21:03:19.858Z,38.54
2023-01-11T21:05:46.396Z,38.42
2023-01-11T21:08:12.867Z,38.67
2023-01-11T21:10:39.596Z,38.33
2023-01-11T21:13:06.836Z,38.91
2023-01-11T21:15:33.316Z,38.81
2023-01-11T21:17:59.760Z,38.59
2023-01-11T21:20:26.244Z,38.63
2023-01-11T21:22:52.709Z,38.64
2023-01-11T21:25:19.481Z,38.82
2023-01-11T21:27:45.949Z,38.67
2023-01-11T21:30:12.478Z,38.57
2023-01-11T21:32:39.078Z,38.56
2023-01-11T21:35:05.798Z,38.23
2023-01-11T21:37:32.234Z,38.04
2023-01-11T21:39:58.725Z,38.42
2023-01-11T21:42:25.185Z,37.93
2023-01-11T21:44:51.678Z,37.72
2023-01-11T21:47:19.593Z,37.57
2023-01-11T21:49:46.087Z,37.46
2023-01-11T21:52:12.536Z,37.42
2023-01-11T21:54:39.008Z,37.25
2023-01-11T21:57:05.485Z,37.61
2023-01-11T21:59:33.661Z,36.91
2023-01-11T22:02:00.460Z,36.75
2023-01-11T22:04:26.938Z,36.27
2023-01-11T22:06:58.084Z,36.52
2023-01-11T22:09:26.285Z,36.16
2023-01-11T22:11:52.822Z,36.38
2023-01-11T22:14:19.360Z,36.25
2023-01-11T22:16:45.844Z,35.95
2023-01-11T22:19:12.393Z,36.29
2023-01-11T22:21:38.913Z,36.30
2023-01-11T22:24:06.298Z,36.07
2023-01-11T22:26:35.677Z,36.09
2023-01-11T22:29:17.639Z,36.03
2023-01-11T22:31:50.741Z,36.07
2023-01-11T22:34:17.467Z,36.06
2023-01-11T22:36:44.154Z,35.97
2023-01-11T22:39:11.286Z,36.05
2023-01-11T22:41:39.870Z,36.24
2023-01-11T22:44:07.560Z,36.42
2023-01-11T22:46:34.013Z,36.04
2023-01-11T22:49:00.524Z,36.12
2023-01-11T22:51:27.074Z,36.06
2023-01-11T22:53:53.939Z,35.96
2023-01-11T22:56:22.139Z,36.18
2023-01-11T22:58:50.316Z,36.42
2023-01-11T23:01:24.405Z,36.64
2023-01-11T23:03:51.186Z,36.25
2023-01-11T23:06:19.459Z,36.31
2023-01-11T23:08:45.919Z,37.11
2023-01-11T23:11:40.049Z,36.14
2023-01-11T23:14:08.474Z,35.65
2023-01-11T23:16:35.107Z,35.45
2023-01-11T23:19:01.737Z,35.59
2023-01-11T23:21:28.270Z,35.85
2023-01-11T23:23:54.759Z,35.83
2023-01-11T23:26:21.607Z,35.85
2023-01-11T23:28:48.643Z,35.85
2023-01-11T23:31:24.859Z,35.69
2023-01-11T23:33:53.083Z,35.78
2023-01-11T23:36:20.556Z,35.96
2023-01-11T23:38:47.267Z,36.05
2023-01-11T23:41:36.503Z,35.77
2023-01-11T23:44:04.936Z,35.86
2023-01-11T23:47:03.579Z,35.90
2023-01-11T23:49:30.649Z,35.94
2023-01-11T23:51:57.209Z,35.86
2023-01-11T23:54:26.082Z,35.96
2023-01-11T23:56:52.566Z,36.34
2023-01-11T23:59:19.039Z,36.39
